Time;durP1;ratioP1;P1;durP2;ratioP2;P2;SDS_P1;SDS_P2;PMS_P1;PMS_P2;Temp;Humidity;BMP_temperature;BMP_pressure;BME280_temperature;BME280_humidity;BME280_pressure;Samples;Min_cycle;Max_cycle;Signal;HPM_P1;HPM_P2
2022/07/25 04:22:46;;;;;;;20.25;13.88;;;;;;;18.01;95.91;99788.91;5150824;27;20328;-65
2022/07/25 04:25:11;;;;;;;20.52;13.73;;;;;;;18.01;96.55;99786.19;5150745;27;20441;-66
2022/07/25 04:27:37;;;;;;;20.85;14.32;;;;;;;18.08;96.44;99783.41;5150799;27;20289;-66
2022/07/25 04:30:03;;;;;;;27.65;15.57;;;;;;;18.20;95.67;99783.41;5150399;27;20079;-66
2022/07/25 04:32:28;;;;;;;25.85;14.60;;;;;;;18.22;95.14;99789.38;5151221;27;20054;-67
2022/07/25 04:34:54;;;;;;;21.23;13.88;;;;;;;18.20;95.00;99792.31;5150684;27;20039;-66
2022/07/25 04:37:19;;;;;;;19.33;12.85;;;;;;;18.26;94.67;99785.16;5150476;27;20038;-67
2022/07/25 04:39:45;;;;;;;20.20;12.98;;;;;;;18.24;95.62;99782.69;5150268;27;20046;-66
2022/07/25 04:42:10;;;;;;;20.58;13.20;;;;;;;18.24;96.12;99784.56;5150355;27;20038;-67
2022/07/25 04:44:35;;;;;;;19.50;12.43;;;;;;;18.25;96.04;99780.81;5150320;27;20080;-66
2022/07/25 04:47:01;;;;;;;22.73;14.13;;;;;;;18.28;96.22;99791.94;5150293;27;20490;-55
2022/07/25 04:49:26;;;;;;;20.40;14.05;;;;;;;18.37;95.88;99776.22;5150352;27;20152;-56
2022/07/25 04:51:52;;;;;;;21.92;14.40;;;;;;;18.44;95.38;99776.94;5150377;27;20353;-50
2022/07/25 04:54:17;;;;;;;23.52;14.95;;;;;;;18.55;94.59;99769.91;5150403;27;20145;-51
2022/07/25 04:56:42;;;;;;;21.08;13.98;;;;;;;18.61;94.25;99766.25;5150220;27;20046;-51
2022/07/25 04:59:08;;;;;;;20.48;13.88;;;;;;;18.64;93.67;99758.50;5149863;27;20060;-51
2022/07/25 05:01:35;;;;;;;27.13;14.20;;;;;;;18.67;93.97;99765.34;5150009;27;20081;-52
2022/07/25 05:04:00;;;;;;;22.07;13.70;;;;;;;18.74;94.30;99767.91;5150094;27;20047;-52
2022/07/25 05:06:26;;;;;;;23.55;14.43;;;;;;;18.75;93.54;99756.06;5149982;27;20103;-52
2022/07/25 05:08:51;;;;;;;23.83;14.10;;;;;;;18.88;92.41;99766.56;5149855;27;20031;-52
2022/07/25 05:11:16;;;;;;;26.17;16.67;;;;;;;18.95;91.29;99762.66;5149884;27;20611;-53
2022/07/25 05:13:42;;;;;;;28.75;15.55;;;;;;;19.04;90.39;99763.13;5149891;27;20037;-51
2022/07/25 05:16:08;;;;;;;23.00;13.35;;;;;;;19.15;89.88;99764.94;5149835;27;20479;-55
2022/07/25 05:18:34;;;;;;;26.88;14.25;;;;;;;19.29;88.33;99756.56;5149855;27;20060;-54
2022/07/25 05:20:59;;;;;;;25.38;13.68;;;;;;;19.44;87.67;99754.16;5149292;27;20047;-53
2022/07/25 05:23:24;;;;;;;25.25;13.95;;;;;;;19.52;86.76;99765.38;5148441;27;20061;-50
2022/07/25 05:25:50;;;;;;;23.55;14.48;;;;;;;19.65;86.07;99764.28;5149634;27;20047;-52
2022/07/25 05:28:15;;;;;;;29.73;16.58;;;;;;;19.77;85.77;99759.63;5149578;27;20123;-48
2022/07/25 05:30:41;;;;;;;21.92;14.25;;;;;;;19.92;84.30;99760.91;5149257;27;20030;-53
2022/07/25 05:33:06;;;;;;;20.77;13.63;;;;;;;20.03;82.85;99754.63;5141609;27;20394;-52
2022/07/25 05:35:31;;;;;;;18.88;13.00;;;;;;;20.14;82.49;99756.38;5135553;27;20545;-47
2022/07/25 05:37:57;;;;;;;18.27;12.88;;;;;;;20.24;81.63;99748.44;5135576;27;20047;-49
2022/07/25 05:40:23;;;;;;;20.92;12.95;;;;;;;20.36;81.31;99744.81;5135083;27;20042;-56
2022/07/25 05:42:48;;;;;;;20.00;13.27;;;;;;;20.53;80.21;99757.25;5135362;27;20043;-48
2022/07/25 05:45:13;;;;;;;19.48;12.57;;;;;;;20.74;78.83;99750.22;5135226;27;20635;-49
2022/07/25 05:47:39;;;;;;;22.90;12.30;;;;;;;20.90;78.42;99755.81;5135323;27;20114;-54
2022/07/25 05:50:05;;;;;;;19.50;12.88;;;;;;;21.02;77.84;99756.50;5134935;27;20519;-56
2022/07/25 05:52:30;;;;;;;19.98;13.20;;;;;;;21.10;77.67;99750.63;5135419;27;20127;-57
2022/07/25 05:54:56;;;;;;;19.95;13.05;;;;;;;21.18;78.06;99746.66;5135549;27;20035;-54
2022/07/25 05:57:21;;;;;;;18.90;13.15;;;;;;;21.30;77.16;99753.59;5134958;27;20384;-56
2022/07/25 05:59:46;;;;;;;18.95;13.30;;;;;;;21.42;75.90;99750.72;5134721;27;20043;-55
2022/07/25 06:02:12;;;;;;;16.80;12.73;;;;;;;21.45;76.24;99739.38;5135013;27;20047;-55
2022/07/25 06:04:37;;;;;;;17.55;11.98;;;;;;;21.58;75.32;99738.97;5134977;27;20062;-55
2022/07/25 06:07:03;;;;;;;19.35;12.30;;;;;;;21.73;74.74;99737.47;5133670;27;20114;-55
2022/07/25 06:09:30;;;;;;;18.23;11.68;;;;;;;21.87;73.75;99741.38;5134613;27;20580;-47
2022/07/25 06:11:56;;;;;;;;;;;;;;;21.95;73.30;99747.13;5135213;27;20070;-50
2022/07/25 06:14:21;;;;;;;17.58;11.65;;;;;;;22.11;72.56;99745.38;5134816;27;19950;-53
2022/07/25 06:16:46;;;;;;;19.50;12.68;;;;;;;22.26;71.82;99741.94;5134694;27;20113;-56
2022/07/25 06:19:12;;;;;;;20.63;13.30;;;;;;;22.39;70.97;99741.47;5134465;27;20486;-57
2022/07/25 06:21:37;;;;;;;18.98;12.00;;;;;;;22.51;70.80;99740.44;5134578;27;20031;-52
2022/07/25 06:24:03;;;;;;;22.90;12.75;;;;;;;22.62;70.33;99739.41;5134689;27;20047;-53
2022/07/25 06:26:29;;;;;;;17.65;11.93;;;;;;;22.69;70.38;99739.97;5134493;27;20122;-54
2022/07/25 06:28:54;;;;;;;15.63;11.45;;;;;;;22.83;68.34;99740.31;5134414;27;20062;-54
2022/07/25 06:31:20;;;;;;;16.00;11.23;;;;;;;23.05;67.53;99743.66;5134318;27;20062;-54
2022/07/25 06:33:45;;;;;;;15.38;11.15;;;;;;;23.05;67.81;99734.72;5134471;27;20042;-52
2022/07/25 06:36:10;;;;;;;15.48;11.82;;;;;;;23.22;65.70;99735.31;5134435;27;20039;-53
2022/07/25 06:38:36;;;;;;;14.18;10.57;;;;;;;23.34;66.26;99726.88;5134459;27;20066;-53
2022/07/25 06:41:01;;;;;;;19.08;12.02;;;;;;;23.37;66.42;99740.75;5133860;27;20068;-50
2022/07/25 06:43:27;;;;;;;19.17;13.40;;;;;;;23.48;66.36;99739.69;5134170;27;20039;-52
2022/07/25 06:45:53;;;;;;;16.83;11.00;;;;;;;23.61;65.04;99738.38;5133177;27;20106;-53
2022/07/25 06:48:18;;;;;;;16.92;11.15;;;;;;;23.64;64.39;99737.81;5134098;27;20031;-45
2022/07/25 06:50:44;;;;;;;14.50;10.93;;;;;;;23.71;64.18;99737.53;5133775;27;20500;-49
2022/07/25 06:53:09;;;;;;;15.88;11.32;;;;;;;23.74;64.11;99731.56;5134087;27;20112;-48
2022/07/25 06:55:35;;;;;;;17.75;10.52;;;;;;;23.92;63.03;99741.06;5133967;27;20035;-54
2022/07/25 06:58:00;;;;;;;18.13;11.10;;;;;;;24.05;61.70;99733.16;5134020;27;20505;-51
2022/07/25 07:00:26;;;;;;;13.13;10.52;;;;;;;24.12;61.35;99727.44;5133448;27;20399;-51
2022/07/25 07:02:58;;;;;;;14.10;11.05;;;;;;;24.28;60.92;99730.97;5132642;27;20066;-49
2022/07/25 07:05:35;;;;;;;12.48;9.95;;;;;;;24.29;61.22;99724.41;5132656;27;20503;-51
2022/07/25 07:08:01;;;;;;;14.45;9.95;;;;;;;24.40;60.91;99727.97;5133931;27;20035;-51
2022/07/25 07:10:27;;;;;;;17.83;10.57;;;;;;;24.67;58.41;99720.25;5131983;27;20039;-60
2022/07/25 07:13:14;;;;;;;17.33;10.68;;;;;;;24.90;58.19;99721.47;5133639;27;20041;-60
2022/07/25 07:15:44;;;;;;;13.68;9.90;;;;;;;25.19;55.60;99720.81;5133637;27;20122;-60
2022/07/25 07:18:09;;;;;;;14.02;9.88;;;;;;;25.41;54.85;99721.19;5132318;27;20119;-60
2022/07/25 07:20:35;;;;;;;10.63;9.27;;;;;;;25.52;54.23;99711.84;5131801;27;20114;-60
2022/07/25 07:23:00;;;;;;;13.20;9.43;;;;;;;25.67;54.07;99711.72;5133359;27;20508;-60
2022/07/25 07:25:26;;;;;;;14.93;10.35;;;;;;;25.69;54.23;99723.19;5133325;27;20034;-60
2022/07/25 07:27:51;;;;;;;13.70;10.02;;;;;;;25.94;53.65;99721.34;5133463;27;20419;-60
2022/07/25 07:30:18;;;;;;;14.20;9.77;;;;;;;26.11;52.58;99713.53;5133052;27;20160;-60
2022/07/25 07:32:43;;;;;;;11.68;9.40;;;;;;;26.21;52.25;99718.06;5133409;27;20030;-60
2022/07/25 07:35:11;;;;;;;12.23;9.40;;;;;;;26.29;52.25;99722.09;5133768;27;20447;-60
2022/07/25 07:37:37;;;;;;;11.88;9.23;;;;;;;26.38;52.59;99717.63;5133219;27;20045;-60
2022/07/25 07:40:03;;;;;;;11.73;8.90;;;;;;;26.43;52.06;99720.31;5132933;27;20038;-60
2022/07/25 07:42:37;;;;;;;13.23;9.27;;;;;;;26.46;51.82;99722.47;5132964;27;20061;-60
2022/07/25 07:45:02;;;;;;;12.68;8.75;;;;;;;26.59;51.69;99718.22;5133124;27;20035;-60
2022/07/25 07:47:28;;;;;;;10.02;8.43;;;;;;;26.86;50.71;99721.13;5132965;27;20058;-60
2022/07/25 07:49:53;;;;;;;11.35;9.15;;;;;;;26.95;50.75;99710.38;5132655;27;20072;-61
2022/07/25 07:52:18;;;;;;;14.10;9.07;;;;;;;27.08;50.95;99722.53;5132925;27;20364;-61
2022/07/25 07:57:28;;;;;;;11.10;8.20;;;;;;;27.56;49.11;99709.47;5133184;27;20042;-61
2022/07/25 07:59:53;;;;;;;11.65;7.65;;;;;;;27.61;49.39;99709.41;5132806;27;20031;-61
2022/07/25 08:02:19;;;;;;;12.00;8.18;;;;;;;27.72;49.45;99707.34;5132748;27;20035;-61
2022/07/25 08:04:44;;;;;;;9.45;7.90;;;;;;;27.99;48.47;99709.34;5132873;27;20576;-61
2022/07/25 08:07:09;;;;;;;13.63;8.50;;;;;;;27.94;48.50;99714.91;5131465;27;20403;-61
2022/07/25 08:09:35;;;;;;;12.02;8.57;;;;;;;28.04;48.39;99712.78;5132417;27;20035;-61
2022/07/25 08:12:00;;;;;;;9.68;8.23;;;;;;;28.07;49.59;99717.66;5132645;27;20051;-61
2022/07/25 08:14:26;;;;;;;9.70;8.45;;;;;;;28.13;50.31;99715.63;5132634;27;20035;-61
2022/07/25 08:16:51;;;;;;;13.70;8.73;;;;;;;28.36;49.27;99722.91;5132494;27;20146;-61
2022/07/25 08:19:17;;;;;;;10.45;8.27;;;;;;;28.45;48.46;99713.97;5132354;27;20051;-61
2022/07/25 08:21:42;;;;;;;10.57;8.02;;;;;;;28.62;47.34;99727.84;5132488;27;20043;-61
2022/07/25 08:24:08;;;;;;;8.93;8.02;;;;;;;28.67;47.99;99722.25;5132687;27;20133;-61
2022/07/25 08:26:35;;;;;;;10.63;8.15;;;;;;;28.80;47.12;99726.91;5132418;27;20059;-61
2022/07/25 08:29:01;;;;;;;12.15;8.27;;;;;;;29.13;45.04;99719.38;5132374;27;20126;-61
2022/07/25 08:31:27;;;;;;;9.30;8.30;;;;;;;29.25;45.71;99720.75;5132353;27;20118;-61
2022/07/25 08:33:52;;;;;;;10.25;7.97;;;;;;;29.29;44.74;99717.09;5132468;27;20043;-61
2022/07/25 08:36:18;;;;;;;9.88;8.85;;;;;;;29.52;44.62;99720.69;5131193;28;20039;-61
2022/07/25 08:38:44;;;;;;;11.05;7.70;;;;;;;29.64;46.01;99725.63;5132425;27;20035;-61
2022/07/25 08:41:09;;;;;;;10.98;7.95;;;;;;;29.72;44.49;99716.63;5132168;27;20035;-61
2022/07/25 08:43:36;;;;;;;10.43;7.80;;;;;;;29.76;44.75;99712.13;5132472;27;20415;-61
2022/07/25 08:46:04;;;;;;;12.20;8.05;;;;;;;29.87;45.20;99718.19;5132181;27;20487;-61
2022/07/25 08:48:30;;;;;;;10.13;7.55;;;;;;;29.91;45.45;99714.47;5132223;28;20039;-61
2022/07/25 08:50:56;;;;;;;9.68;8.35;;;;;;;30.11;45.16;99715.09;5132035;27;20548;-60
2022/07/25 08:53:22;;;;;;;8.60;7.70;;;;;;;30.22;43.29;99714.50;5132395;27;20035;-61
2022/07/25 08:55:47;;;;;;;8.50;7.53;;;;;;;30.30;43.12;99696.44;5132242;27;20050;-61
2022/07/25 08:58:15;;;;;;;8.98;8.05;;;;;;;30.40;44.41;99698.91;5132376;27;20035;-61
2022/07/25 09:00:41;;;;;;;9.20;7.68;;;;;;;30.51;42.68;99699.41;5131880;27;20039;-61
2022/07/25 09:03:07;;;;;;;16.83;8.00;;;;;;;30.71;43.17;99701.63;5132503;27;20415;-61
2022/07/25 09:05:34;;;;;;;8.43;7.57;;;;;;;30.97;40.89;99698.91;5132137;27;20035;-61
2022/07/25 09:08:07;;;;;;;;;;;;;;;30.99;42.30;99702.13;5133778;27;20043;-61
2022/07/25 09:10:34;;;;;;;8.77;7.25;;;;;;;31.36;41.20;99699.09;5135800;27;19911;-61
2022/07/25 09:13:12;;;;;;;8.25;7.38;;;;;;;31.42;39.31;99695.03;5136085;27;20102;-61
2022/07/25 09:15:46;;;;;;;8.15;7.20;;;;;;;31.77;38.39;99684.78;5135991;27;20035;-61
2022/07/25 09:18:13;;;;;;;9.90;7.25;;;;;;;31.84;39.38;99687.88;5136082;27;20453;-61
2022/07/25 09:20:40;;;;;;;8.10;7.00;;;;;;;31.88;38.85;99681.34;5135472;27;20027;-61
2022/07/25 09:23:06;;;;;;;7.72;6.93;;;;;;;32.12;39.92;99683.56;5135896;27;20042;-61
2022/07/25 09:25:31;;;;;;;6.83;5.90;;;;;;;32.29;39.57;99682.69;5135466;27;20484;-61
2022/07/25 09:28:17;;;;;;;7.23;6.50;;;;;;;32.35;37.93;99681.38;5135731;27;20247;-61
2022/07/25 09:30:58;;;;;;;7.35;6.47;;;;;;;32.77;37.62;99675.94;5135627;27;20381;-61
2022/07/25 09:33:26;;;;;;;6.85;6.25;;;;;;;33.00;37.38;99672.91;5135701;27;20144;-61
2022/07/25 09:35:53;;;;;;;7.88;6.88;;;;;;;33.11;37.02;99672.13;5135534;27;20054;-61
2022/07/25 09:38:19;;;;;;;6.93;6.20;;;;;;;33.32;36.42;99668.53;5135572;27;20034;-61
2022/07/25 09:40:56;;;;;;;7.43;6.45;;;;;;;33.57;35.41;99672.22;5135317;27;20126;-61
2022/07/25 09:43:22;;;;;;;5.93;5.35;;;;;;;33.63;33.35;99662.59;5135537;27;20469;-61
2022/07/25 09:45:51;;;;;;;6.82;5.75;;;;;;;33.68;33.79;99654.09;5135356;27;20416;-61
2022/07/25 09:48:19;;;;;;;6.28;5.68;;;;;;;33.99;34.89;99651.66;5135391;27;20113;-62
2022/07/25 09:50:46;;;;;;;8.80;5.70;;;;;;;34.16;33.22;99656.13;5134809;27;20043;-62
2022/07/25 09:53:12;;;;;;;6.25;5.30;;;;;;;34.29;31.95;99654.16;5135293;27;20037;-62
2022/07/25 09:55:37;;;;;;;6.53;4.87;;;;;;;34.62;30.57;99654.03;5135269;27;20039;-62
2022/07/25 09:58:03;;;;;;;5.93;5.33;;;;;;;34.91;31.79;99658.50;5135250;27;20039;-62
2022/07/25 10:00:30;;;;;;;7.20;6.00;;;;;;;34.81;30.16;99653.44;5134959;27;20027;-62
2022/07/25 10:03:10;;;;;;;6.35;5.70;;;;;;;34.92;31.49;99651.84;5135221;27;20449;-62
2022/07/25 10:05:41;;;;;;;5.78;5.15;;;;;;;35.13;30.37;99645.31;5134931;27;20042;-62
2022/07/25 10:08:07;;;;;;;7.00;5.60;;;;;;;35.47;30.31;99646.66;5135013;27;20058;-62
2022/07/25 10:10:39;;;;;;;6.43;5.30;;;;;;;35.57;29.18;99643.38;5133350;27;20062;-62
2022/07/25 10:13:15;;;;;;;9.07;5.57;;;;;;;35.70;29.32;99642.16;5135008;27;20031;-62
2022/07/25 10:15:42;;;;;;;6.40;5.65;;;;;;;35.88;29.13;99648.97;5134960;27;20030;-63
2022/07/25 10:18:08;;;;;;;6.20;5.50;;;;;;;35.96;29.37;99644.44;5134758;27;20080;-62
2022/07/25 10:20:34;;;;;;;4.68;4.28;;;;;;;35.85;29.90;99644.13;5134276;27;20099;-62
2022/07/25 10:23:00;;;;;;;5.68;4.97;;;;;;;35.86;30.47;99644.94;5133497;27;20043;-62
2022/07/25 10:25:26;;;;;;;5.47;4.60;;;;;;;35.52;30.41;99636.13;5134505;27;20086;-63
2022/07/25 10:28:01;;;;;;;7.60;5.65;;;;;;;35.19;29.73;99638.34;5134919;27;20026;-62
2022/07/25 10:30:34;;;;;;;8.10;5.60;;;;;;;34.78;31.03;99632.81;5134335;27;20034;-63
2022/07/25 10:33:18;;;;;;;5.60;4.95;;;;;;;34.72;31.50;99628.69;5135052;27;20095;-65
2022/07/25 10:35:44;;;;;;;5.32;4.82;;;;;;;34.65;31.74;99634.00;5134441;27;20423;-63
2022/07/25 10:38:10;;;;;;;7.70;5.20;;;;;;;34.73;31.23;99627.53;5134543;27;20030;-62
2022/07/25 10:40:45;;;;;;;5.80;5.30;;;;;;;34.72;33.01;99631.47;5134280;27;20034;-64
2022/07/25 10:43:11;;;;;;;5.93;5.32;;;;;;;34.75;34.00;99629.94;5134723;27;20031;-63
2022/07/25 10:45:51;;;;;;;5.45;4.95;;;;;;;34.66;32.40;99627.31;5134436;27;20037;-63
2022/07/25 10:48:24;;;;;;;5.47;4.97;;;;;;;34.63;31.70;99625.28;5134220;27;20031;-64
2022/07/25 10:50:57;;;;;;;5.63;5.10;;;;;;;35.29;32.69;99638.66;5133760;27;20031;-59
2022/07/25 10:53:47;;;;;;;4.80;4.40;;;;;;;35.85;31.98;99624.72;5133983;27;20031;-59
2022/07/25 10:56:21;;;;;;;5.13;4.68;;;;;;;36.34;30.82;99635.47;5125922;27;20043;-60
2022/07/25 10:58:51;;;;;;;5.65;5.00;;;;;;;36.41;29.65;99627.34;5133810;27;20510;-62
2022/07/25 11:01:24;;;;;;;6.07;5.47;;;;;;;36.45;30.16;99630.16;5133755;27;20038;-60
2022/07/25 11:03:52;;;;;;;5.85;5.20;;;;;;;36.39;31.88;99621.34;5133890;27;20045;-60
2022/07/25 11:06:41;;;;;;;5.55;5.05;;;;;;;36.57;30.06;99618.16;5133765;27;20039;-60
2022/07/25 11:09:17;;;;;;;5.63;4.90;;;;;;;36.19;29.72;99625.22;5133619;27;20023;-60
2022/07/25 11:11:49;;;;;;;5.45;5.00;;;;;;;35.61;29.18;99628.50;5132496;27;20031;-60
2022/07/25 11:14:15;;;;;;;5.90;4.95;;;;;;;35.66;30.32;99627.41;5133779;27;20798;-58
2022/07/25 11:16:42;;;;;;;5.70;5.20;;;;;;;35.80;30.10;99625.03;5133631;27;20475;-65
2022/07/25 11:19:22;;;;;;;5.50;5.00;;;;;;;35.57;29.98;99616.50;5133368;27;20080;-63
2022/07/25 11:21:59;;;;;;;6.07;5.32;;;;;;;35.74;29.86;99609.03;5132183;27;20042;-63
2022/07/25 11:24:41;;;;;;;4.85;4.38;;;;;;;35.60;31.09;99614.97;5133373;27;20069;-63
2022/07/25 11:27:09;;;;;;;5.35;4.78;;;;;;;35.91;31.45;99610.66;5133420;27;20515;-63
2022/07/25 11:29:36;;;;;;;6.53;5.15;;;;;;;36.31;32.22;99615.94;5133041;27;20069;-63
2022/07/25 11:32:10;;;;;;;5.10;4.60;;;;;;;36.51;29.12;99617.63;5132793;27;20539;-63
2022/07/25 11:34:45;;;;;;;4.97;4.47;;;;;;;36.64;28.14;99610.78;5132037;27;20039;-63
2022/07/25 11:37:12;;;;;;;4.97;4.50;;;;;;;36.46;28.42;99600.50;5133224;27;20078;-63
2022/07/25 11:39:40;;;;;;;4.97;4.50;;;;;;;36.04;29.10;99603.84;5132917;27;20147;-63
2022/07/25 11:42:17;;;;;;;5.68;5.20;;;;;;;36.08;29.26;99601.97;5131953;27;20062;-63
2022/07/25 11:44:47;;;;;;;5.45;4.95;;;;;;;35.56;31.20;99609.38;5133159;27;20073;-63
2022/07/25 11:47:29;;;;;;;5.32;4.78;;;;;;;35.50;29.79;99604.44;5132977;27;20035;-63
2022/07/25 11:50:00;;;;;;;5.70;5.10;;;;;;;35.95;31.77;99603.25;5132770;27;20454;-63
2022/07/25 11:52:34;;;;;;;5.43;4.90;;;;;;;36.63;30.57;99594.50;5133212;27;20027;-63
2022/07/25 11:55:05;;;;;;;4.72;4.32;;;;;;;37.21;29.22;99600.88;5133142;27;20072;-63
2022/07/25 11:57:33;;;;;;;5.10;4.38;;;;;;;37.59;28.03;99598.44;5133221;27;20449;-63
2022/07/25 12:00:01;;;;;;;4.95;4.55;;;;;;;37.75;28.15;99587.97;5132655;27;20039;-63
2022/07/25 12:02:35;;;;;;;6.38;4.43;;;;;;;37.84;26.69;99587.78;5132914;27;20114;-63
2022/07/25 12:05:04;;;;;;;6.03;4.95;;;;;;;38.28;26.11;99576.97;5132821;27;20027;-63
2022/07/25 12:07:44;;;;;;;7.03;4.63;;;;;;;39.04;27.44;99579.53;5132758;27;20023;-63
2022/07/25 12:10:15;;;;;;;5.80;4.80;;;;;;;39.27;26.14;99576.63;5132570;27;20445;-63
2022/07/25 12:12:44;;;;;;;5.25;4.75;;;;;;;39.48;25.13;99578.81;5132764;27;20054;-64
2022/07/25 12:15:14;;;;;;;5.55;4.45;;;;;;;39.04;26.29;99569.19;5132760;27;20055;-63
2022/07/25 12:17:40;;;;;;;5.07;4.60;;;;;;;38.80;26.89;99572.50;5132784;27;20041;-63
2022/07/25 12:20:16;;;;;;;8.15;4.97;;;;;;;38.25;26.55;99570.16;5132429;27;20118;-63
2022/07/25 12:22:42;;;;;;;4.90;4.50;;;;;;;37.93;27.68;99569.66;5132436;27;20080;-63
2022/07/25 12:25:09;;;;;;;5.53;5.03;;;;;;;37.88;27.80;99560.81;5132609;27;20047;-63
2022/07/25 12:27:34;;;;;;;5.30;4.80;;;;;;;37.43;28.83;99577.16;5132474;27;20110;-64
2022/07/25 12:30:00;;;;;;;5.90;5.00;;;;;;;37.54;28.93;99570.97;5132344;27;20539;-63
2022/07/25 12:32:25;;;;;;;5.70;4.97;;;;;;;37.30;28.64;99553.47;5132479;27;20502;-63
2022/07/25 12:34:51;;;;;;;5.53;5.03;;;;;;;37.81;29.08;99557.94;5132547;27;20062;-63
2022/07/25 12:37:16;;;;;;;6.40;5.00;;;;;;;37.89;27.80;99549.34;5132388;27;20039;-64
2022/07/25 12:39:41;;;;;;;5.80;5.20;;;;;;;37.64;27.81;99548.94;5132269;27;20023;-64
2022/07/25 12:42:07;;;;;;;5.77;5.17;;;;;;;37.24;28.66;99548.59;5132554;27;20433;-63
2022/07/25 12:44:32;;;;;;;5.30;4.90;;;;;;;37.20;30.21;99535.44;5136507;27;20127;-63
2022/07/25 12:46:58;;;;;;;5.90;5.30;;;;;;;37.59;27.73;99540.91;5136643;27;20564;-63
2022/07/25 12:49:23;;;;;;;5.43;4.93;;;;;;;37.33;28.98;99540.81;5136290;27;20050;-63
2022/07/25 12:51:49;;;;;;;5.87;5.27;;;;;;;36.68;28.50;99541.53;5136498;27;20380;-63
2022/07/25 12:54:16;;;;;;;5.75;4.80;;;;;;;36.69;28.88;99543.13;5135260;27;20066;-62
2022/07/25 12:56:41;;;;;;;5.25;4.75;;;;;;;36.51;28.77;99542.75;5136319;27;20080;-62
2022/07/25 12:59:07;;;;;;;5.20;4.70;;;;;;;36.23;29.19;99545.69;5134946;27;20051;-63
2022/07/25 13:01:32;;;;;;;6.53;5.20;;;;;;;35.81;29.90;99545.50;5117868;27;20404;-61
2022/07/25 13:03:58;;;;;;;4.97;4.57;;;;;;;35.78;30.40;99546.19;5136257;27;20449;-61
2022/07/25 13:06:23;;;;;;;5.60;5.10;;;;;;;35.64;30.90;99549.41;5135974;27;20035;-61
2022/07/25 13:08:48;;;;;;;5.90;5.30;;;;;;;35.69;30.36;99549.16;5135950;27;20384;-61
2022/07/25 13:11:14;;;;;;;6.77;5.40;;;;;;;35.79;29.66;99548.59;5135828;27;20084;-58
2022/07/25 13:13:39;;;;;;;5.80;5.27;;;;;;;35.85;30.61;99555.47;5136044;27;20031;-60
2022/07/25 13:16:05;;;;;;;7.00;6.30;;;;;;;35.67;30.90;99551.50;5135981;27;20396;-62
2022/07/25 13:18:31;;;;;;;5.90;5.40;;;;;;;35.47;30.18;99553.34;5135999;27;20035;-61
2022/07/25 13:20:56;;;;;;;7.40;6.07;;;;;;;35.22;30.72;99557.41;5135523;27;20130;-61
2022/07/25 13:23:22;;;;;;;5.80;5.30;;;;;;;35.12;31.13;99555.94;5134592;27;20105;-59
2022/07/25 13:25:47;;;;;;;6.63;5.80;;;;;;;35.15;31.62;99557.19;5135715;27;20035;-61
2022/07/25 13:28:13;;;;;;;5.70;4.93;;;;;;;35.29;32.38;99557.59;5135821;27;20035;-61
2022/07/25 13:30:38;;;;;;;5.63;5.13;;;;;;;35.27;31.78;99559.91;5135445;27;20121;-61
2022/07/25 13:33:04;;;;;;;5.97;5.47;;;;;;;35.29;31.08;99563.94;5135652;27;20127;-61
2022/07/25 13:35:31;;;;;;;5.33;4.93;;;;;;;35.32;31.34;99556.88;5135518;27;20076;-61
2022/07/25 13:37:56;;;;;;;5.90;5.13;;;;;;;35.47;32.07;99547.00;5135526;27;20054;-60
2022/07/25 13:40:22;;;;;;;6.03;5.53;;;;;;;35.47;30.89;99549.75;5135256;27;20074;-60
2022/07/25 13:42:47;;;;;;;5.57;5.07;;;;;;;35.49;31.26;99550.22;5135450;27;20126;-61
2022/07/25 13:45:13;;;;;;;5.97;5.40;;;;;;;35.41;30.50;99546.44;5135465;27;20078;-61
2022/07/25 13:47:38;;;;;;;10.23;5.27;;;;;;;35.25;31.29;99543.66;5135519;27;20070;-58
2022/07/25 13:50:04;;;;;;;5.50;5.07;;;;;;;35.21;31.20;99530.88;5135074;27;20479;-60
2022/07/25 13:52:30;;;;;;;6.00;5.15;;;;;;;35.12;31.78;99538.53;5135289;27;20035;-61
2022/07/25 13:54:55;;;;;;;5.77;5.27;;;;;;;35.02;31.60;99548.97;5133815;27;20453;-62
2022/07/25 13:57:21;;;;;;;5.90;5.40;;;;;;;34.94;32.20;99544.38;5135100;27;20061;-60
2022/07/25 13:59:46;;;;;;;9.43;5.43;;;;;;;34.74;32.04;99537.06;5133667;27;20039;-61
2022/07/25 14:02:12;;;;;;;5.17;4.77;;;;;;;34.76;32.46;99540.31;5135205;27;20035;-62
2022/07/25 14:04:37;;;;;;;6.40;5.27;;;;;;;34.60;32.90;99533.91;5135042;27;20043;-61
2022/07/25 14:07:02;;;;;;;5.63;5.00;;;;;;;34.48;32.96;99531.97;5134956;27;20035;-61
2022/07/25 14:09:28;;;;;;;7.37;5.70;;;;;;;33.93;34.56;99545.28;5134715;27;20064;-61
2022/07/25 14:11:53;;;;;;;6.57;5.73;;;;;;;33.46;37.66;99550.44;5135082;27;20515;-58
2022/07/25 14:14:19;;;;;;;6.73;5.23;;;;;;;33.12;37.47;99549.59;5134864;27;20045;-59
2022/07/25 14:16:44;;;;;;;6.70;5.20;;;;;;;32.63;38.95;99556.84;5134847;27;20035;-59
2022/07/25 14:19:10;;;;;;;12.40;5.43;;;;;;;32.34;40.69;99554.94;5134473;27;20092;-58
2022/07/25 14:21:35;;;;;;;7.07;5.20;;;;;;;31.86;43.69;99562.50;5134642;27;20539;-59
2022/07/25 14:24:01;;;;;;;6.10;5.53;;;;;;;31.65;43.71;99580.06;5134758;27;20038;-60
2022/07/25 14:26:27;;;;;;;7.72;5.93;;;;;;;31.27;47.12;99598.13;5134648;27;20031;-57
2022/07/25 14:28:55;;;;;;;7.87;5.93;;;;;;;30.43;49.47;99590.31;5134534;27;20034;-60
2022/07/25 14:31:20;;;;;;;9.80;5.30;;;;;;;30.36;49.33;99601.78;5134229;27;20031;-60
2022/07/25 14:33:46;;;;;;;6.60;5.78;;;;;;;30.19;50.08;99588.00;5134487;27;20486;-60
2022/07/25 14:36:12;;;;;;;7.90;5.43;;;;;;;30.12;50.71;99585.72;5134415;27;20107;-58
2022/07/25 14:38:38;;;;;;;7.50;5.32;;;;;;;30.00;52.32;99583.56;5134438;27;20039;-60
2022/07/25 14:41:04;;;;;;;6.95;5.70;;;;;;;30.10;50.50;99581.69;5134006;27;20442;-59
2022/07/25 14:43:30;;;;;;;7.85;5.82;;;;;;;30.10;50.29;99582.50;5134280;27;20031;-58
2022/07/25 14:45:55;;;;;;;8.63;5.70;;;;;;;30.17;50.01;99576.53;5133125;27;20407;-58
2022/07/25 14:48:21;;;;;;;8.05;5.57;;;;;;;30.26;49.84;99571.88;5134369;27;20437;-60
2022/07/25 14:50:46;;;;;;;6.50;5.15;;;;;;;30.30;50.60;99570.09;5133732;27;20062;-62
2022/07/25 14:53:12;;;;;;;8.60;5.45;;;;;;;30.24;50.03;99568.63;5134164;27;20042;-58
2022/07/25 14:55:38;;;;;;;7.70;5.65;;;;;;;30.32;50.71;99567.84;5133990;27;20041;-60
2022/07/25 14:58:03;;;;;;;7.78;5.50;;;;;;;30.34;50.40;99564.78;5133981;27;20122;-60
2022/07/25 15:00:29;;;;;;;8.50;5.80;;;;;;;30.47;50.44;99558.31;5133684;27;20027;-62
2022/07/25 15:02:54;;;;;;;7.78;6.50;;;;;;;30.49;50.43;99561.56;5133795;27;20035;-60
2022/07/25 15:05:20;;;;;;;6.95;5.80;;;;;;;30.50;50.16;99569.47;5132898;27;20080;-60
2022/07/25 15:07:45;;;;;;;6.47;5.70;;;;;;;30.56;50.18;99567.38;5133721;27;20083;-60
2022/07/25 15:10:11;;;;;;;7.45;5.60;;;;;;;30.54;49.88;99564.97;5133352;27;20125;-61
2022/07/25 15:12:37;;;;;;;6.43;5.60;;;;;;;30.56;51.03;99564.63;5133541;27;20114;-63
2022/07/25 15:15:03;;;;;;;9.02;5.97;;;;;;;30.51;49.54;99565.59;5133682;27;20071;-57
2022/07/25 15:17:28;;;;;;;6.32;5.70;;;;;;;30.53;49.36;99566.09;5133366;27;20049;-60
2022/07/25 15:19:54;;;;;;;8.45;5.65;;;;;;;30.54;49.85;99562.22;5131888;27;20039;-61
2022/07/25 15:22:19;;;;;;;7.30;6.50;;;;;;;30.51;49.62;99560.09;5133470;27;20046;-61
2022/07/25 15:24:44;;;;;;;7.40;6.25;;;;;;;30.53;50.29;99557.84;5133454;27;20488;-58
2022/07/25 15:27:10;;;;;;;9.32;6.15;;;;;;;30.52;49.63;99556.25;5133512;27;20042;-58
2022/07/25 15:29:35;;;;;;;8.98;6.28;;;;;;;30.45;49.59;99553.16;5133164;27;20118;-59
2022/07/25 15:32:04;;;;;;;6.25;5.57;;;;;;;30.52;49.10;99555.44;5133304;27;20046;-60
2022/07/25 15:34:31;;;;;;;8.73;6.10;;;;;;;30.62;48.40;99554.28;5133213;27;20039;-64
2022/07/25 15:36:56;;;;;;;;;;;;;;;30.80;47.68;99555.94;5133587;27;20130;-60
2022/07/25 15:39:22;;;;;;;9.00;6.40;;;;;;;31.04;47.33;99553.50;5133192;27;19942;-61
2022/07/25 15:41:47;;;;;;;11.10;6.65;;;;;;;31.19;45.48;99541.16;5133523;27;20035;-63
2022/07/25 15:44:13;;;;;;;6.75;6.05;;;;;;;31.34;45.79;99535.16;5133417;27;20043;-58
2022/07/25 15:46:39;;;;;;;8.30;5.88;;;;;;;31.46;44.34;99534.47;5131670;27;20118;-58
2022/07/25 15:49:04;;;;;;;7.90;5.70;;;;;;;31.53;43.58;99540.28;5132694;27;20132;-59
2022/07/25 15:51:30;;;;;;;6.40;5.53;;;;;;;31.61;44.19;99542.19;5132988;27;20036;-60
2022/07/25 15:53:55;;;;;;;6.80;5.30;;;;;;;31.70;44.15;99549.59;5133181;27;20448;-56